createdAt,value
2019-01-16T00:02:21.469Z,0.50
2019-01-16T00:05:02.515Z,0.40
2019-01-16T00:08:02.972Z,0.40
2019-01-16T00:10:45.006Z,0.30
2019-01-16T00:13:33.795Z,0.20
2019-01-16T00:16:31.554Z,0.10
2019-01-16T00:19:20.185Z,0.10
2019-01-16T00:22:11.636Z,0.10
2019-01-16T00:24:58.802Z,0.00
2019-01-16T00:28:02.409Z,-0.10
2019-01-16T00:30:56.562Z,-0.10
2019-01-16T00:34:20.691Z,-0.20
2019-01-16T00:41:55.565Z,-0.30
2019-01-16T00:45:10.026Z,-0.30
2019-01-16T00:52:52.530Z,-0.40
2019-01-16T00:56:23.472Z,-0.50
2019-01-16T01:00:09.728Z,-0.60
2019-01-16T01:10:30.116Z,-0.60
2019-01-16T01:14:31.195Z,-0.70
2019-01-16T01:17:15.481Z,-0.70
2019-01-16T01:20:02.678Z,-0.60
2019-01-16T01:22:51.309Z,-0.60
2019-01-16T01:25:46.917Z,-0.60
2019-01-16T01:28:47.605Z,-0.70
2019-01-16T01:31:42.118Z,-0.80
2019-01-16T01:34:45.697Z,-0.80
2019-01-16T01:37:27.014Z,-0.80
2019-01-16T01:40:15.635Z,-0.80
2019-01-16T01:42:52.074Z,-0.80
2019-01-16T01:45:43.613Z,-0.80
2019-01-16T01:48:39.807Z,-0.80
2019-01-16T01:51:15.737Z,-0.80
2019-01-16T01:54:03.053Z,-0.90
2019-01-16T01:56:45.892Z,-0.90
2019-01-16T01:59:28.917Z,-0.90
2019-01-16T02:02:17.701Z,-0.90
2019-01-16T02:04:56.861Z,-0.90
2019-01-16T02:07:43.847Z,-0.90
2019-01-16T02:10:38.574Z,-0.90
2019-01-16T02:13:25.612Z,-0.90
2019-01-16T02:16:12.054Z,-0.90
2019-01-16T02:18:59.781Z,-0.90
2019-01-16T02:21:47.042Z,-0.80
2019-01-16T02:24:38.957Z,-0.80
2019-01-16T02:27:25.458Z,-0.80
2019-01-16T02:30:12.853Z,-0.80
2019-01-16T02:32:59.814Z,-0.80
2019-01-16T02:35:57.390Z,-0.80
2019-01-16T02:38:36.389Z,-0.80
2019-01-16T02:41:27.860Z,-0.80
2019-01-16T02:44:19.324Z,-0.80
2019-01-16T02:47:23.139Z,-0.80
2019-01-16T02:50:06.893Z,-0.80
2019-01-16T02:52:45.613Z,-0.80
2019-01-16T02:55:37.307Z,-0.90
2019-01-16T02:58:22.134Z,-0.90
2019-01-16T03:01:25.697Z,-0.80
2019-01-16T03:04:23.100Z,-0.80
2019-01-16T03:07:14.587Z,-0.80
2019-01-16T03:10:06.002Z,-0.80
2019-01-16T03:13:00.607Z,-0.80
2019-01-16T03:16:01.115Z,-0.80
2019-01-16T03:18:49.770Z,-0.70
2019-01-16T03:21:41.417Z,-0.70
2019-01-16T03:24:27.693Z,-0.80
2019-01-16T03:27:05.956Z,-0.80
2019-01-16T03:29:53.007Z,-0.80
2019-01-16T03:32:53.566Z,-0.90
2019-01-16T03:35:40.869Z,-0.90
2019-01-16T03:38:20.970Z,-1.00
2019-01-16T03:41:15.369Z,-0.90
2019-01-16T03:44:07.025Z,-0.90
2019-01-16T03:46:43.915Z,-1.00
2019-01-16T03:49:32.501Z,-1.00
2019-01-16T03:52:36.313Z,-1.00
2019-01-16T03:55:34.272Z,-1.00
2019-01-16T03:58:37.834Z,-1.10
2019-01-16T04:01:26.542Z,-1.10
2019-01-16T04:04:17.682Z,-1.10
2019-01-16T04:07:12.236Z,-1.10
2019-01-16T04:10:06.216Z,-1.10
2019-01-16T04:12:54.879Z,-1.10
2019-01-16T04:15:49.390Z,-1.10
2019-01-16T04:18:40.788Z,-1.20
2019-01-16T04:21:29.407Z,-1.30
2019-01-16T04:24:16.769Z,-1.30
2019-01-16T04:27:14.268Z,-1.40
2019-01-16T04:30:01.775Z,-1.40
2019-01-16T04:33:00.853Z,-1.30
2019-01-16T04:35:55.580Z,-1.30
2019-01-16T04:38:42.598Z,-1.30
2019-01-16T04:41:34.333Z,-1.30
2019-01-16T04:44:21.700Z,-1.40
2019-01-16T04:47:08.997Z,-1.40
2019-01-16T04:49:56.052Z,-1.40
2019-01-16T04:52:43.254Z,-1.40
2019-01-16T04:55:46.970Z,-1.40
2019-01-16T04:58:44.671Z,-1.50
2019-01-16T05:01:32.145Z,-1.40
2019-01-16T05:04:19.152Z,-1.40
2019-01-16T05:06:58.126Z,-1.40
2019-01-16T05:09:44.743Z,-1.50
2019-01-16T05:12:39.716Z,-1.50
2019-01-16T05:15:18.001Z,-1.50
2019-01-16T05:18:04.973Z,-1.60
2019-01-16T05:20:51.998Z,-1.60
2019-01-16T05:23:39.184Z,-1.60
2019-01-16T05:26:33.749Z,-1.60
2019-01-16T05:29:21.185Z,-1.50
2019-01-16T05:32:12.716Z,-1.50
2019-01-16T05:35:04.092Z,-1.60
2019-01-16T05:38:01.806Z,-1.60
2019-01-16T05:40:50.563Z,-1.50
2019-01-16T05:43:48.097Z,-1.50
2019-01-16T05:46:40.251Z,-1.60
2019-01-16T05:49:34.750Z,-1.60
2019-01-16T05:52:26.254Z,-1.60
2019-01-16T05:55:29.779Z,-1.60
2019-01-16T05:58:21.097Z,-1.60
2019-01-16T06:01:08.324Z,-1.60
2019-01-16T06:03:52.106Z,-1.70
2019-01-16T06:06:43.843Z,-1.70
2019-01-16T06:09:44.507Z,-1.80
2019-01-16T06:12:31.349Z,-1.70
2019-01-16T06:15:18.405Z,-1.70
2019-01-16T06:18:05.938Z,-1.70
2019-01-16T06:21:12.537Z,-1.80
2019-01-16T06:24:03.976Z,-1.80
2019-01-16T06:27:04.613Z,-1.80
2019-01-16T06:30:02.189Z,-1.80
2019-01-16T06:32:56.575Z,-1.80
2019-01-16T06:35:51.113Z,-1.80
2019-01-16T06:38:52.503Z,-1.80
2019-01-16T06:41:44.259Z,-1.80
2019-01-16T06:44:38.620Z,-1.80
2019-01-16T06:47:36.414Z,-1.80
2019-01-16T06:50:28.623Z,-1.80
2019-01-16T06:53:32.440Z,-1.80
2019-01-16T06:56:23.793Z,-1.70
2019-01-16T06:59:11.363Z,-1.60
2019-01-16T07:02:15.015Z,-1.50
2019-01-16T07:05:09.428Z,-1.60
2019-01-16T07:07:58.153Z,-1.60
2019-01-16T07:10:41.425Z,-1.60
2019-01-16T07:13:28.517Z,-1.60
2019-01-16T07:16:20.240Z,-1.60
2019-01-16T07:19:07.191Z,-1.70
2019-01-16T07:21:54.460Z,-1.70
2019-01-16T07:24:46.398Z,-1.60
2019-01-16T07:27:35.084Z,-1.60
2019-01-16T07:30:19.075Z,-1.70
2019-01-16T07:33:16.959Z,-1.60
2019-01-16T07:36:05.353Z,-1.50
2019-01-16T07:38:52.438Z,-1.50
2019-01-16T07:41:36.523Z,-1.60
2019-01-16T07:44:37.622Z,-1.50
2019-01-16T07:47:24.848Z,-1.40
2019-01-16T07:50:17.177Z,-1.30
2019-01-16T07:53:02.270Z,-1.10
2019-01-16T07:56:09.109Z,-0.90
2019-01-16T07:59:06.746Z,-0.70
2019-01-16T08:01:55.441Z,-0.50
2019-01-16T08:04:42.957Z,-0.10
2019-01-16T08:07:34.965Z,0.00
2019-01-16T08:10:40.077Z,0.20
2019-01-16T08:13:33.872Z,0.40
2019-01-16T08:16:28.930Z,0.60
2019-01-16T08:19:23.314Z,0.90
2019-01-16T08:22:05.026Z,1.20
2019-01-16T08:24:48.830Z,1.30
2019-01-16T08:27:36.055Z,1.40
2019-01-16T08:30:28.914Z,1.30
2019-01-16T08:33:26.633Z,1.30
2019-01-16T08:36:21.452Z,1.20
2019-01-16T08:39:15.669Z,1.20
2019-01-16T08:42:22.486Z,1.10
2019-01-16T08:45:06.065Z,1.20
2019-01-16T08:47:57.314Z,1.30
2019-01-16T08:50:48.899Z,1.40
2019-01-16T08:53:43.601Z,1.50
2019-01-16T08:56:30.778Z,1.40
2019-01-16T08:59:15.586Z,1.40
2019-01-16T09:02:07.186Z,1.40
2019-01-16T09:05:01.648Z,1.30
2019-01-16T09:07:56.188Z,1.30
2019-01-16T09:10:47.945Z,1.40
2019-01-16T09:13:36.565Z,1.40
2019-01-16T09:16:32.981Z,1.40
2019-01-16T09:19:20.285Z,1.40
2019-01-16T09:22:13.371Z,1.60
2019-01-16T09:25:06.687Z,1.70
2019-01-16T09:28:04.557Z,1.70
2019-01-16T09:31:05.083Z,1.60
2019-01-16T09:33:59.681Z,1.60
2019-01-16T09:36:46.963Z,1.70
2019-01-16T09:39:36.363Z,1.80
2019-01-16T09:42:23.468Z,1.80
2019-01-16T09:45:19.317Z,1.90
2019-01-16T09:48:19.969Z,1.90
2019-01-16T09:51:08.609Z,2.10
2019-01-16T09:54:06.156Z,2.20
2019-01-16T09:56:54.813Z,2.40
2019-01-16T09:59:46.582Z,2.40
2019-01-16T10:02:33.758Z,2.40
2019-01-16T10:05:17.553Z,2.50
2019-01-16T10:08:21.411Z,2.60
2019-01-16T10:11:13.150Z,2.70
2019-01-16T10:14:11.057Z,2.80
2019-01-16T10:17:02.808Z,2.80
2019-01-16T10:19:55.507Z,2.80
2019-01-16T10:22:33.949Z,3.10
2019-01-16T10:25:22.960Z,3.50
2019-01-16T10:28:17.660Z,4.10
2019-01-16T10:31:05.009Z,4.70
2019-01-16T10:33:56.477Z,5.00
2019-01-16T10:36:57.112Z,5.00
2019-01-16T10:39:44.051Z,4.70
2019-01-16T10:42:22.215Z,4.60
2019-01-16T10:45:28.813Z,4.40
2019-01-16T10:48:17.432Z,4.30
2019-01-16T10:51:06.085Z,4.10
2019-01-16T10:53:54.989Z,3.90
2019-01-16T10:56:46.564Z,3.80
2019-01-16T10:59:31.941Z,3.80
2019-01-16T11:02:19.302Z,3.80
2019-01-16T11:05:16.763Z,3.70
2019-01-16T11:07:58.105Z,3.70
2019-01-16T11:10:46.820Z,3.90
2019-01-16T11:13:41.292Z,3.80
2019-01-16T11:16:30.763Z,3.80
2019-01-16T11:19:18.776Z,4.00
2019-01-16T11:22:19.379Z,4.10
2019-01-16T11:25:10.825Z,4.20
2019-01-16T11:27:59.425Z,4.50
2019-01-16T11:31:00.453Z,4.90
2019-01-16T11:33:49.175Z,5.10
2019-01-16T11:36:50.748Z,5.50
2019-01-16T11:39:39.392Z,5.80
2019-01-16T11:42:19.573Z,5.90
2019-01-16T11:45:14.164Z,5.70
2019-01-16T11:48:04.800Z,5.40
2019-01-16T11:50:45.497Z,5.20
2019-01-16T11:53:46.104Z,5.20
2019-01-16T11:56:33.470Z,5.10
2019-01-16T11:59:22.134Z,5.00
2019-01-16T12:02:13.840Z,5.00
2019-01-16T12:05:11.521Z,5.00
2019-01-16T12:08:03.029Z,5.30
2019-01-16T12:10:57.741Z,5.80
2019-01-16T12:13:41.752Z,6.50
2019-01-16T12:16:36.530Z,7.20
2019-01-16T12:19:27.123Z,7.50
2019-01-16T12:22:04.421Z,7.70
2019-01-16T12:24:44.534Z,7.70
2019-01-16T12:27:36.167Z,7.60
2019-01-16T12:30:23.512Z,7.50
2019-01-16T12:33:21.285Z,7.40
2019-01-16T12:36:17.966Z,7.50
2019-01-16T12:39:12.678Z,7.60
2019-01-16T12:42:11.738Z,7.90
2019-01-16T12:45:00.347Z,8.00
2019-01-16T12:47:47.652Z,8.20
2019-01-16T12:50:34.082Z,8.20
2019-01-16T12:53:21.507Z,8.10
2019-01-16T12:56:11.008Z,8.40
2019-01-16T12:58:54.832Z,8.50
2019-01-16T13:01:49.381Z,8.30
2019-01-16T13:04:30.976Z,7.60
2019-01-16T13:07:19.613Z,7.00
2019-01-16T13:10:23.431Z,6.50
2019-01-16T13:13:12.104Z,6.20
2019-01-16T13:16:10.204Z,6.10
2019-01-16T13:18:57.225Z,6.00
2019-01-16T13:21:48.766Z,5.90
2019-01-16T13:24:49.202Z,6.10
2019-01-16T13:27:43.523Z,6.20
2019-01-16T13:30:31.688Z,6.80
2019-01-16T13:33:18.893Z,7.50
2019-01-16T13:36:06.390Z,7.80
2019-01-16T13:38:49.521Z,8.00
2019-01-16T13:41:37.105Z,8.10
2019-01-16T13:44:32.136Z,7.70
2019-01-16T13:47:27.638Z,7.70
2019-01-16T13:50:25.077Z,7.80
2019-01-16T13:53:32.046Z,7.70
2019-01-16T13:56:13.978Z,7.40
2019-01-16T13:58:56.882Z,7.10
2019-01-16T14:01:48.761Z,6.90
2019-01-16T14:04:26.647Z,6.80
2019-01-16T14:07:27.505Z,6.70
2019-01-16T14:10:14.514Z,6.70
2019-01-16T14:13:01.690Z,6.70
2019-01-16T14:15:53.474Z,6.60
2019-01-16T14:18:48.142Z,6.60
2019-01-16T14:21:42.636Z,6.60
2019-01-16T14:24:37.476Z,6.60
2019-01-16T14:27:39.522Z,6.60
2019-01-16T14:30:35.252Z,6.50
2019-01-16T14:33:22.830Z,6.40
2019-01-16T14:36:09.815Z,6.40
2019-01-16T14:38:59.965Z,6.30
2019-01-16T14:41:54.576Z,6.30
2019-01-16T14:44:43.315Z,6.20
2019-01-16T14:47:30.233Z,6.10
2019-01-16T14:50:17.357Z,6.10
2019-01-16T14:53:09.741Z,6.10
2019-01-16T14:55:56.741Z,6.10
2019-01-16T14:58:45.447Z,6.10
2019-01-16T15:01:46.028Z,6.00
2019-01-16T15:04:26.105Z,5.90
2019-01-16T15:07:33.034Z,5.90
2019-01-16T15:10:21.650Z,5.90
2019-01-16T15:13:06.962Z,5.80
2019-01-16T15:15:58.565Z,5.80
2019-01-16T15:18:45.771Z,5.80
2019-01-16T15:21:27.627Z,5.80
2019-01-16T15:24:16.275Z,5.70
2019-01-16T15:27:07.636Z,5.60
2019-01-16T15:30:02.368Z,5.60
2019-01-16T15:33:03.922Z,5.50
2019-01-16T15:36:01.500Z,5.40
2019-01-16T15:38:53.057Z,5.30
2019-01-16T15:41:39.472Z,5.20
2019-01-16T15:44:37.463Z,5.10
2019-01-16T15:47:28.886Z,5.00
2019-01-16T15:50:29.834Z,4.90
2019-01-16T15:53:30.437Z,4.80
2019-01-16T15:56:31.053Z,4.60
2019-01-16T15:59:28.638Z,4.60
2019-01-16T16:02:29.545Z,4.50
2019-01-16T16:05:33.099Z,4.40
2019-01-16T16:08:30.860Z,4.30
2019-01-16T16:11:10.165Z,4.30
2019-01-16T16:14:05.297Z,4.10
2019-01-16T16:17:12.252Z,4.10
2019-01-16T16:20:01.134Z,4.00
2019-01-16T16:22:54.581Z,4.10
2019-01-16T16:25:43.561Z,4.00
2019-01-16T16:28:38.346Z,3.90
2019-01-16T16:31:14.199Z,3.80
2019-01-16T16:33:54.441Z,3.70
2019-01-16T16:36:48.936Z,3.60
2019-01-16T16:39:43.491Z,3.50
2019-01-16T16:42:35.316Z,3.40
2019-01-16T16:45:32.328Z,3.30
2019-01-16T16:48:28.269Z,3.20
2019-01-16T16:51:31.916Z,3.10
2019-01-16T16:54:19.096Z,3.00
2019-01-16T16:57:13.737Z,2.90
2019-01-16T17:00:11.261Z,2.90
2019-01-16T17:03:09.328Z,2.80
2019-01-16T17:06:10.424Z,2.70
2019-01-16T17:08:50.523Z,2.60
2019-01-16T17:11:36.419Z,2.50
2019-01-16T17:14:34.548Z,2.50
2019-01-16T17:17:38.599Z,2.40
2019-01-16T17:20:42.779Z,2.40
2019-01-16T17:23:34.673Z,2.50
2019-01-16T17:26:23.583Z,2.50
2019-01-16T17:29:12.292Z,2.50
2019-01-16T17:32:00.948Z,2.50
2019-01-16T17:34:48.079Z,2.50
2019-01-16T17:37:48.644Z,2.40
2019-01-16T17:40:46.737Z,2.40
2019-01-16T17:43:31.599Z,2.30
2019-01-16T17:46:23.225Z,2.30
2019-01-16T17:49:17.866Z,2.30
2019-01-16T17:52:00.812Z,2.20
2019-01-16T17:54:47.306Z,2.10
2019-01-16T17:57:44.995Z,2.00
2019-01-16T18:00:34.054Z,2.00
2019-01-16T18:03:25.674Z,2.10
2019-01-16T18:06:14.838Z,2.10
2019-01-16T18:09:10.810Z,2.10
2019-01-16T18:12:05.359Z,2.10
2019-01-16T18:14:54.017Z,2.10
2019-01-16T18:17:48.842Z,2.20
2019-01-16T18:20:37.531Z,2.30
2019-01-16T18:23:25.368Z,2.40
2019-01-16T18:26:03.388Z,2.50
2019-01-16T18:28:50.160Z,2.50
2019-01-16T18:31:37.472Z,2.50
2019-01-16T18:34:24.751Z,2.60
2019-01-16T18:37:19.420Z,2.60
2019-01-16T18:40:17.046Z,2.60
2019-01-16T18:43:08.629Z,2.50
2019-01-16T18:46:07.457Z,2.40
2019-01-16T18:48:51.597Z,2.40
2019-01-16T18:51:43.120Z,2.30
2019-01-16T18:54:37.995Z,2.30
2019-01-16T18:57:24.933Z,2.30
2019-01-16T19:00:26.046Z,2.30
2019-01-16T19:03:13.225Z,2.30
2019-01-16T19:06:11.385Z,2.20
2019-01-16T19:09:10.590Z,2.10
2019-01-16T19:11:57.967Z,2.10
2019-01-16T19:14:49.614Z,2.00
2019-01-16T19:17:36.484Z,1.90
2019-01-16T19:20:28.146Z,1.80
2019-01-16T19:23:16.924Z,1.70
2019-01-16T19:25:59.449Z,1.70
2019-01-16T19:28:48.277Z,1.60
2019-01-16T19:31:39.763Z,1.50
2019-01-16T19:34:37.472Z,1.40
2019-01-16T19:37:20.867Z,1.30
2019-01-16T19:40:10.083Z,1.30
2019-01-16T19:43:14.071Z,1.30
2019-01-16T19:46:05.796Z,1.30
2019-01-16T19:48:52.776Z,1.30
2019-01-16T19:51:50.573Z,1.40
2019-01-16T19:54:38.323Z,1.40
2019-01-16T19:57:45.102Z,1.50
2019-01-16T20:00:36.113Z,1.40
2019-01-16T20:03:25.929Z,1.30
2019-01-16T20:06:32.823Z,1.30
2019-01-16T20:09:30.254Z,1.20
2019-01-16T20:12:11.735Z,1.20
2019-01-16T20:15:06.329Z,1.20
2019-01-16T20:18:02.281Z,1.30
2019-01-16T20:20:49.780Z,1.30
2019-01-16T20:23:50.456Z,1.30
2019-01-16T20:26:38.558Z,1.20
2019-01-16T20:29:27.363Z,1.20
2019-01-16T20:32:16.352Z,1.10
2019-01-16T20:34:55.127Z,1.00
2019-01-16T20:38:02.046Z,1.00
2019-01-16T20:40:54.067Z,0.90
2019-01-16T20:43:42.103Z,0.80
2019-01-16T20:46:39.985Z,0.80
2019-01-16T20:49:27.305Z,0.70
2019-01-16T20:52:10.499Z,0.70
2019-01-16T20:55:05.178Z,0.70
2019-01-16T20:57:52.466Z,0.70
2019-01-16T21:00:39.509Z,0.60
2019-01-16T21:03:47.273Z,0.60
2019-01-16T21:06:34.573Z,0.70
2019-01-16T21:09:30.922Z,0.60
2019-01-16T21:12:16.533Z,0.60
2019-01-16T21:15:08.581Z,0.50
2019-01-16T21:17:56.576Z,0.50
2019-01-16T21:20:49.755Z,0.50
2019-01-16T21:23:36.839Z,0.50
2019-01-16T21:26:40.447Z,0.50
2019-01-16T21:29:47.284Z,0.50
2019-01-16T21:32:43.587Z,0.50
2019-01-16T21:35:41.349Z,0.40
2019-01-16T21:38:29.395Z,0.40
2019-01-16T21:41:16.467Z,0.40
2019-01-16T21:44:17.813Z,0.30
2019-01-16T21:47:19.715Z,0.20
2019-01-16T21:50:06.907Z,0.30
2019-01-16T21:52:55.535Z,0.20
2019-01-16T21:55:43.432Z,0.20
2019-01-16T21:58:47.858Z,0.20
2019-01-16T22:01:38.429Z,0.20
2019-01-16T22:04:33.708Z,0.10
2019-01-16T22:07:25.533Z,0.00
2019-01-16T22:10:15.176Z,0.00
2019-01-16T22:13:18.885Z,0.00
2019-01-16T22:16:08.894Z,0.00
2019-01-16T22:18:57.058Z,0.00
2019-01-16T22:21:44.525Z,0.00
2019-01-16T22:24:31.429Z,0.00
2019-01-16T22:27:24.022Z,0.00
2019-01-16T22:30:17.393Z,0.00
2019-01-16T22:33:18.182Z,-0.10
2019-01-16T22:35:59.266Z,0.00
2019-01-16T22:38:53.938Z,0.00
2019-01-16T22:41:39.129Z,0.00
2019-01-16T22:44:35.016Z,0.00
2019-01-16T22:47:41.989Z,0.00
2019-01-16T22:50:29.652Z,0.00
2019-01-16T22:53:18.554Z,0.10
2019-01-16T22:56:10.345Z,0.10
2019-01-16T22:59:10.945Z,0.10
2019-01-16T23:02:02.446Z,0.20
2019-01-16T23:04:54.189Z,0.30
2019-01-16T23:07:30.958Z,0.30
2019-01-16T23:10:25.420Z,0.30
2019-01-16T23:13:12.430Z,0.40
2019-01-16T23:16:01.190Z,0.40
2019-01-16T23:18:49.772Z,0.40
2019-01-16T23:21:33.554Z,0.40
2019-01-16T23:24:17.891Z,0.40
2019-01-16T23:27:16.310Z,0.30
2019-01-16T23:29:59.995Z,0.30
2019-01-16T23:32:46.915Z,0.40
2019-01-16T23:35:53.710Z,0.40
2019-01-16T23:38:43.022Z,0.40
2019-01-16T23:41:35.028Z,0.40
2019-01-16T23:44:38.984Z,0.40
2019-01-16T23:47:27.651Z,0.40
2019-01-16T23:50:20.929Z,0.30
2019-01-16T23:53:09.652Z,0.30
2019-01-16T23:56:04.040Z,0.30
2019-01-16T23:58:47.720Z,0.30
